Time;durP1;ratioP1;P1;durP2;ratioP2;P2;SDS_P1;SDS_P2;PMS_P1;PMS_P2;Temp;Humidity;BMP_temperature;BMP_pressure;BME280_temperature;BME280_humidity;BME280_pressure;Samples;Min_cycle;Max_cycle;Signal;HPM_P1;HPM_P2
2020/12/23 00:00:52;;;;;;;61.90;39.08;;;;;;;;;;10402261;28;20102;-63
2020/12/23 00:05:49;;;;;;;53.33;35.10;;;;;;;;;;10402869;28;20043;-63
2020/12/23 00:10:47;;;;;;;54.13;35.40;;;;;;;;;;10402563;28;20075;-64
2020/12/23 00:15:44;;;;;;;48.33;33.45;;;;;;;;;;10402548;28;20035;-63
2020/12/23 00:20:41;;;;;;;51.42;35.22;;;;;;;;;;10402047;28;20480;-62
2020/12/23 00:25:39;;;;;;;75.53;47.65;;;;;;;;;;10401622;28;20052;-63
2020/12/23 00:30:37;;;;;;;55.45;34.53;;;;;;;;;;10401872;28;20079;-63
2020/12/23 00:35:34;;;;;;;41.63;28.98;;;;;;;;;;10402766;28;20040;-62
2020/12/23 00:40:31;;;;;;;44.65;27.52;;;;;;;;;;10401243;28;20101;-63
2020/12/23 00:45:29;;;;;;;40.13;26.08;;;;;;;;;;10401147;28;20051;-61
2020/12/23 00:50:27;;;;;;;39.22;25.95;;;;;;;;;;10382497;28;20094;-64
2020/12/23 00:55:24;;;;;;;37.65;24.83;;;;;;;;;;10382575;28;20050;-63
2020/12/23 01:00:22;;;;;;;40.20;27.15;;;;;;;;;;10381899;28;20070;-63
2020/12/23 01:05:19;;;;;;;36.65;24.20;;;;;;;;;;10401476;28;20040;-62
2020/12/23 01:10:17;;;;;;;36.30;25.58;;;;;;;;;;10401344;28;20461;-63
2020/12/23 01:15:15;;;;;;;50.28;33.38;;;;;;;;;;10400929;28;20043;-63
2020/12/23 01:20:12;;;;;;;41.30;26.73;;;;;;;;;;10400537;28;20071;-63
2020/12/23 01:25:09;;;;;;;36.33;23.60;;;;;;;;;;10400939;28;20044;-63
2020/12/23 01:30:08;;;;;;;36.97;25.23;;;;;;;;;;10400596;28;20071;-64
2020/12/23 01:35:05;;;;;;;39.83;24.73;;;;;;;;;;10399520;28;20066;-63
2020/12/23 01:40:03;;;;;;;37.38;24.13;;;;;;;;;;10400453;28;20600;-63
2020/12/23 01:45:00;;;;;;;35.15;23.15;;;;;;;;;;10399158;28;20048;-63
2020/12/23 01:49:58;;;;;;;38.88;23.50;;;;;;;;;;10398492;28;20087;-63
2020/12/23 01:54:56;;;;;;;35.03;24.33;;;;;;;;;;10399551;28;20433;-64
2020/12/23 01:59:53;;;;;;;38.30;25.77;;;;;;;;;;10399566;28;20054;-63
2020/12/23 02:04:51;;;;;;;39.92;28.08;;;;;;;;;;10397807;28;20048;-64
2020/12/23 02:09:50;;;;;;;49.42;28.48;;;;;;;;;;10398774;28;20086;-63
2020/12/23 02:14:48;;;;;;;39.55;24.50;;;;;;;;;;10398925;28;20059;-64
2020/12/23 02:19:51;;;;;;;37.28;24.80;;;;;;;;;;10399049;28;20071;-63
2020/12/23 02:24:50;;;;;;;37.30;25.63;;;;;;;;;;10398223;28;20527;-63
2020/12/23 02:29:48;;;;;;;38.72;25.85;;;;;;;;;;10398908;28;20074;-64
2020/12/23 02:34:46;;;;;;;36.15;25.00;;;;;;;;;;10398839;28;20063;-64
2020/12/23 02:39:44;;;;;;;33.83;24.50;;;;;;;;;;10396999;28;20066;-63
2020/12/23 02:44:42;;;;;;;36.40;26.45;;;;;;;;;;10398865;28;20094;-64
2020/12/23 02:49:40;;;;;;;37.13;26.85;;;;;;;;;;10398461;28;20071;-65
2020/12/23 02:54:38;;;;;;;36.45;24.35;;;;;;;;;;10397104;28;20051;-63
2020/12/23 02:59:35;;;;;;;38.90;27.13;;;;;;;;;;10398223;28;20044;-63
2020/12/23 03:04:33;;;;;;;39.28;27.02;;;;;;;;;;10402174;28;20047;-63
2020/12/23 03:09:31;;;;;;;36.95;25.88;;;;;;;;;;10405054;28;20493;-64
2020/12/23 03:14:28;;;;;;;34.72;25.45;;;;;;;;;;10405739;28;20076;-63
2020/12/23 03:19:25;;;;;;;30.55;22.58;;;;;;;;;;10405139;28;20040;-63
2020/12/23 03:24:23;;;;;;;36.80;25.70;;;;;;;;;;10404536;28;20039;-63
2020/12/23 03:29:21;;;;;;;35.22;23.75;;;;;;;;;;10404839;28;20079;-63
2020/12/23 03:34:18;;;;;;;34.10;23.38;;;;;;;;;;10404395;28;20050;-63
2020/12/23 03:39:15;;;;;;;34.20;24.65;;;;;;;;;;10404021;28;20051;-63
2020/12/23 03:44:14;;;;;;;31.35;23.13;;;;;;;;;;10403180;28;20118;-63
2020/12/23 03:49:11;;;;;;;33.30;22.40;;;;;;;;;;10403285;28;20089;-62
2020/12/23 03:54:09;;;;;;;31.92;23.55;;;;;;;;;;10403903;28;20051;-63
2020/12/23 03:59:06;;;;;;;39.40;25.92;;;;;;;;;;10403714;28;20408;-63
2020/12/23 04:04:05;;;;;;;37.80;25.98;;;;;;;;;;10403049;28;20048;-64
2020/12/23 04:09:02;;;;;;;35.63;23.92;;;;;;;;;;10402742;28;20513;-63
2020/12/23 04:14:01;;;;;;;41.85;29.15;;;;;;;;;;10401996;28;20060;-62
2020/12/23 04:18:58;;;;;;;38.15;27.15;;;;;;;;;;10410946;27;20071;-63
2020/12/23 04:23:56;;;;;;;35.72;24.98;;;;;;;;;;10423568;27;20441;-62
2020/12/23 04:28:54;;;;;;;37.60;24.73;;;;;;;;;;10415577;27;20043;-64
2020/12/23 04:33:51;;;;;;;42.55;25.55;;;;;;;;;;10412827;27;20058;-61
2020/12/23 04:38:48;;;;;;;35.00;24.52;;;;;;;;;;10439214;27;20062;-62
2020/12/23 04:43:47;;;;;;;40.95;26.42;;;;;;;;;;10484761;27;20062;-62
2020/12/23 04:48:46;;;;;;;33.83;23.83;;;;;;;;;;10485490;27;20074;-62
2020/12/23 04:53:43;;;;;;;38.50;27.75;;;;;;;;;;10485148;27;20082;-62
2020/12/23 04:58:41;;;;;;;44.53;29.35;;;;;;;;;;10485095;27;20042;-63
2020/12/23 05:03:40;;;;;;;35.70;25.33;;;;;;;;;;10484566;27;20047;-61
2020/12/23 05:08:44;;;;;;;38.70;24.38;;;;;;;;;;10484735;27;20050;-62
2020/12/23 05:13:42;;;;;;;35.80;23.67;;;;;;;;;;10484576;27;20039;-62
2020/12/23 05:18:41;;;;;;;34.35;21.25;;;;;;;;;;10483435;27;20434;-62
2020/12/23 05:23:39;;;;;;;28.42;21.10;;;;;;;;;;10484038;27;20428;-62
2020/12/23 05:28:37;;;;;;;32.63;21.27;;;;;;;;;;10482370;27;20047;-63
2020/12/23 05:33:35;;;;;;;33.20;21.38;;;;;;;;;;10483774;27;20160;-62
2020/12/23 05:38:34;;;;;;;35.95;21.77;;;;;;;;;;10484046;27;20043;-62
2020/12/23 05:43:31;;;;;;;35.20;24.50;;;;;;;;;;10482440;27;20047;-62
2020/12/23 05:48:29;;;;;;;35.00;24.63;;;;;;;;;;10481989;27;20069;-63
2020/12/23 05:53:27;;;;;;;32.53;22.90;;;;;;;;;;10482935;27;20542;-62
2020/12/23 05:58:27;;;;;;;38.22;25.38;;;;;;;;;;10482169;27;20050;-64
2020/12/23 06:03:26;;;;;;;35.28;25.25;;;;;;;;;;10481600;27;20050;-63
2020/12/23 06:08:29;;;;;;;41.13;27.75;;;;;;;;;;10483045;27;20472;-62
2020/12/23 06:13:35;;;;;;;40.97;27.00;;;;;;;;;;10482502;27;20070;-62
2020/12/23 06:18:37;;;;;;;40.33;27.15;;;;;;;;;;10482527;27;20419;-61
2020/12/23 06:23:34;;;;;;;98.45;55.65;;;;;;;;;;10482008;27;20058;-62
2020/12/23 06:28:36;;;;;;;114.38;63.03;;;;;;;;;;10482139;27;20423;-62
2020/12/23 06:33:37;;;;;;;49.25;32.30;;;;;;;;;;10481696;27;20086;-63
2020/12/23 06:38:35;;;;;;;45.97;32.70;;;;;;;;;;10486553;27;20043;-61
2020/12/23 06:43:51;;;;;;;50.47;33.20;;;;;;;;;;10489419;27;20391;-63
2020/12/23 06:48:49;;;;;;;41.47;29.98;;;;;;;;;;10490417;27;20061;-61
2020/12/23 06:53:46;;;;;;;76.30;49.80;;;;;;;;;;10490046;27;20070;-62
2020/12/23 06:58:43;;;;;;;46.15;33.45;;;;;;;;;;10489339;27;20046;-61
2020/12/23 07:03:41;;;;;;;47.80;31.75;;;;;;;;;;10483915;27;20431;-61
2020/12/23 07:08:40;;;;;;;47.42;30.63;;;;;;;;;;10438084;27;20458;-64
2020/12/23 07:13:38;;;;;;;41.78;29.02;;;;;;;;;;10407043;27;20067;-63
2020/12/23 07:18:37;;;;;;;50.72;31.00;;;;;;;;;;10429255;27;20098;-63
2020/12/23 07:23:35;;;;;;;60.80;37.88;;;;;;;;;;10437091;27;20146;-63
2020/12/23 07:28:33;;;;;;;46.88;31.00;;;;;;;;;;10441858;27;20469;-62
2020/12/23 07:33:33;;;;;;;87.40;50.20;;;;;;;;;;10446349;27;20499;-63
2020/12/23 07:38:32;;;;;;;170.65;93.05;;;;;;;;;;10428717;27;20070;-62
2020/12/23 07:43:29;;;;;;;47.10;30.27;;;;;;;;;;10434021;27;20436;-63
2020/12/23 07:48:28;;;;;;;50.97;30.48;;;;;;;;;;10403014;28;20094;-62
2020/12/23 07:53:27;;;;;;;78.78;53.75;;;;;;;;;;10403841;28;20079;-63
2020/12/23 07:58:24;;;;;;;83.57;59.63;;;;;;;;;;10403812;28;20051;-61
2020/12/23 08:03:25;;;;;;;59.90;38.00;;;;;;;;;;10403677;28;20067;-63
2020/12/23 08:08:27;;;;;;;41.63;26.90;;;;;;;;;;10402406;28;20051;-63
2020/12/23 08:13:25;;;;;;;61.42;41.03;;;;;;;;;;10403249;28;20079;-62
2020/12/23 08:18:22;;;;;;;56.35;34.88;;;;;;;;;;10412835;27;20040;-63
2020/12/23 08:23:20;;;;;;;41.08;26.77;;;;;;;;;;10431440;27;20039;-62
2020/12/23 08:28:19;;;;;;;48.80;28.30;;;;;;;;;;10443855;27;20039;-63
2020/12/23 08:33:17;;;;;;;50.50;31.50;;;;;;;;;;10436144;27;20505;-63
2020/12/23 08:38:18;;;;;;;43.67;25.65;;;;;;;;;;10402237;28;20048;-62
2020/12/23 08:43:21;;;;;;;50.25;34.45;;;;;;;;;;10401737;28;20094;-62
2020/12/23 08:48:18;;;;;;;65.57;57.80;;;;;;;;;;10401106;28;20051;-63
2020/12/23 08:53:16;;;;;;;37.35;26.40;;;;;;;;;;10401729;28;20082;-63
2020/12/23 08:58:13;;;;;;;55.22;35.58;;;;;;;;;;10400649;28;20393;-63
2020/12/23 09:03:22;;;;;;;24.50;17.95;;;;;;;;;;10400153;28;20051;-63
2020/12/23 09:08:22;;;;;;;30.45;23.50;;;;;;;;;;10400697;28;20468;-61
2020/12/23 09:13:28;;;;;;;25.67;19.45;;;;;;;;;;10400092;28;20504;-61
2020/12/23 09:18:26;;;;;;;28.67;20.60;;;;;;;;;;10400058;28;20082;-62
2020/12/23 09:23:23;;;;;;;30.63;20.90;;;;;;;;;;10399786;28;20043;-63
2020/12/23 09:28:23;;;;;;;24.42;18.13;;;;;;;;;;10400346;28;20047;-63
2020/12/23 09:33:21;;;;;;;29.08;19.08;;;;;;;;;;10422482;27;20075;-63
2020/12/23 09:38:24;;;;;;;36.90;26.48;;;;;;;;;;10413026;27;20084;-63
2020/12/23 09:49:29;;;;;;;34.87;22.43;;;;;;;;;;10302416;28;20083;-64
2020/12/23 09:54:27;;;;;;;35.25;23.10;;;;;;;;;;10398379;28;20086;-62
2020/12/23 09:59:24;;;;;;;24.50;17.75;;;;;;;;;;10399598;28;20047;-63
2020/12/23 10:04:24;;;;;;;42.50;25.52;;;;;;;;;;10399510;28;20067;-63
2020/12/23 10:09:22;;;;;;;29.70;22.73;;;;;;;;;;10398590;28;20054;-62
2020/12/23 10:14:23;;;;;;;48.58;31.50;;;;;;;;;;10398737;28;20446;-65
2020/12/23 10:19:20;;;;;;;41.60;26.98;;;;;;;;;;10398142;28;20043;-62
2020/12/23 10:24:18;;;;;;;120.30;63.28;;;;;;;;;;10379866;28;20083;-62
2020/12/23 10:29:15;;;;;;;75.85;44.83;;;;;;;;;;10398734;27;20386;-62
2020/12/23 10:34:14;;;;;;;63.00;36.78;;;;;;;;;;10428014;28;20411;-61
2020/12/23 10:39:11;;;;;;;41.08;27.10;;;;;;;;;;10439547;28;20054;-62
2020/12/23 10:44:08;;;;;;;63.08;41.83;;;;;;;;;;10439809;28;20086;-62
2020/12/23 10:49:06;;;;;;;46.75;29.88;;;;;;;;;;10440069;28;20047;-61
2020/12/23 10:54:05;;;;;;;41.25;26.98;;;;;;;;;;10439187;28;20043;-63
2020/12/23 10:59:05;;;;;;;76.20;46.30;;;;;;;;;;10424932;27;20054;-63
2020/12/23 11:04:02;;;;;;;49.08;30.10;;;;;;;;;;10436588;28;20482;-63
2020/12/23 11:09:00;;;;;;;49.80;35.33;;;;;;;;;;10434973;28;20153;-62
2020/12/23 11:13:58;;;;;;;50.92;35.60;;;;;;;;;;10437308;28;20066;-63
2020/12/23 11:24:08;;;;;;;50.75;31.38;;;;;;;;;;10440248;27;20467;-62
2020/12/23 11:29:06;;;;;;;57.15;38.53;;;;;;;;;;10446304;27;20039;-63
2020/12/23 11:34:04;;;;;;;53.80;32.95;;;;;;;;;;10446465;27;20039;-63
2020/12/23 11:39:01;;;;;;;49.00;30.88;;;;;;;;;;10424534;27;20047;-64
2020/12/23 11:43:59;;;;;;;31.63;21.45;;;;;;;;;;10393820;27;20082;-62
2020/12/23 11:48:57;;;;;;;28.23;17.40;;;;;;;;;;10446146;27;20408;-63
2020/12/23 11:53:56;;;;;;;41.17;23.85;;;;;;;;;;10444129;27;20479;-63
2020/12/23 11:58:54;;;;;;;53.08;32.45;;;;;;;;;;10444270;27;20077;-62
2020/12/23 12:03:51;;;;;;;54.70;31.85;;;;;;;;;;10426441;27;20043;-63
2020/12/23 12:08:49;;;;;;;57.42;32.35;;;;;;;;;;10444656;27;20065;-64
2020/12/23 12:13:47;;;;;;;66.82;38.47;;;;;;;;;;10443597;27;20499;-63
2020/12/23 12:18:44;;;;;;;33.13;21.80;;;;;;;;;;10431661;27;20074;-63
2020/12/23 12:23:41;;;;;;;36.78;26.30;;;;;;;;;;10414812;27;20070;-64
2020/12/23 12:28:40;;;;;;;70.65;43.83;;;;;;;;;;10426117;27;20075;-63
2020/12/23 12:33:37;;;;;;;58.67;33.83;;;;;;;;;;10424706;27;20043;-63
2020/12/23 12:38:35;;;;;;;36.25;21.88;;;;;;;;;;10431871;27;20428;-63
2020/12/23 12:43:41;;;;;;;146.48;67.45;;;;;;;;;;10404997;27;20551;-63
2020/12/23 12:48:38;;;;;;;92.10;43.20;;;;;;;;;;10414503;27;20071;-63
2020/12/23 12:53:36;;;;;;;80.00;38.15;;;;;;;;;;10401281;28;20062;-63
2020/12/23 12:58:33;;;;;;;180.85;110.00;;;;;;;;;;10401169;28;20043;-63
2020/12/23 13:03:31;;;;;;;103.47;50.03;;;;;;;;;;10400065;28;20067;-64
2020/12/23 13:08:29;;;;;;;116.20;66.90;;;;;;;;;;10424095;27;20073;-62
2020/12/23 13:13:26;;;;;;;146.40;73.28;;;;;;;;;;10433538;27;20067;-62
2020/12/23 13:18:24;;;;;;;60.72;33.65;;;;;;;;;;10420160;27;20062;-62
2020/12/23 13:23:22;;;;;;;89.32;41.78;;;;;;;;;;10428878;27;20097;-63
2020/12/23 13:28:22;;;;;;;82.03;44.17;;;;;;;;;;10429837;27;20066;-63
2020/12/23 13:33:19;;;;;;;45.83;29.90;;;;;;;;;;10434033;27;20055;-63
2020/12/23 13:38:17;;;;;;;114.47;56.22;;;;;;;;;;10421038;27;20040;-63
2020/12/23 13:43:15;;;;;;;86.88;41.85;;;;;;;;;;10409998;27;20551;-63
2020/12/23 13:48:12;;;;;;;128.30;60.95;;;;;;;;;;10413447;27;20066;-63
2020/12/23 13:53:09;;;;;;;59.13;34.45;;;;;;;;;;10413307;27;20088;-64
2020/12/23 13:58:07;;;;;;;38.65;27.70;;;;;;;;;;10417571;27;20048;-63
2020/12/23 14:03:06;;;;;;;64.32;37.35;;;;;;;;;;10419543;27;20463;-63
2020/12/23 14:08:03;;;;;;;37.03;25.88;;;;;;;;;;10423059;27;20086;-60
2020/12/23 14:13:06;;;;;;;66.28;38.75;;;;;;;;;;10404311;27;20564;-61
2020/12/23 14:18:10;;;;;;;62.13;44.60;;;;;;;;;;10400442;27;20043;-61
2020/12/23 14:23:08;;;;;;;65.07;38.55;;;;;;;;;;10431676;27;20047;-60
2020/12/23 14:28:05;;;;;;;72.45;43.90;;;;;;;;;;10415305;27;20417;-62
2020/12/23 14:33:03;;;;;;;47.00;32.10;;;;;;;;;;10419660;28;20054;-62
2020/12/23 14:38:01;;;;;;;85.13;57.03;;;;;;;;;;10414825;27;20512;-63
2020/12/23 14:42:59;;;;;;;100.90;56.65;;;;;;;;;;10427365;27;20094;-62
2020/12/23 14:47:57;;;;;;;75.13;46.42;;;;;;;;;;10432053;27;20050;-63
2020/12/23 14:52:54;;;;;;;245.80;128.45;;;;;;;;;;10411794;28;20044;-62
2020/12/23 14:57:53;;;;;;;96.72;54.30;;;;;;;;;;10398866;28;20050;-62
2020/12/23 15:02:51;;;;;;;108.32;68.10;;;;;;;;;;10416036;27;20090;-62
2020/12/23 15:07:48;;;;;;;111.60;66.28;;;;;;;;;;10424798;27;20058;-62
2020/12/23 15:12:45;;;;;;;90.72;52.92;;;;;;;;;;10443024;27;20506;-63
2020/12/23 15:17:43;;;;;;;67.03;46.47;;;;;;;;;;10439012;27;20067;-63
2020/12/23 15:22:41;;;;;;;83.43;55.10;;;;;;;;;;10443387;27;20067;-70
2020/12/23 15:27:38;;;;;;;85.13;59.63;;;;;;;;;;10397249;27;20044;-69
2020/12/23 15:32:35;;;;;;;98.72;72.18;;;;;;;;;;10404148;28;20102;-70
2020/12/23 15:37:34;;;;;;;336.38;156.00;;;;;;;;;;10403564;28;20044;-70
2020/12/23 15:42:32;;;;;;;256.90;175.40;;;;;;;;;;10408439;27;20094;-70
2020/12/23 15:47:29;;;;;;;192.63;129.63;;;;;;;;;;10403869;27;20086;-71
2020/12/23 15:52:26;;;;;;;188.50;124.50;;;;;;;;;;10402522;27;20063;-69
2020/12/23 15:57:25;;;;;;;481.67;281.20;;;;;;;;;;10417206;27;20075;-68
2020/12/23 16:02:25;;;;;;;106.65;77.82;;;;;;;;;;10402693;27;20075;-69
2020/12/23 16:07:23;;;;;;;241.13;134.68;;;;;;;;;;10423084;27;20074;-69
2020/12/23 16:12:20;;;;;;;75.40;50.75;;;;;;;;;;10428037;27;20075;-69
2020/12/23 16:17:18;;;;;;;80.05;48.78;;;;;;;;;;10408807;27;20079;-69
2020/12/23 16:22:17;;;;;;;62.58;41.45;;;;;;;;;;10411778;27;20066;-70
2020/12/23 16:27:14;;;;;;;110.45;73.05;;;;;;;;;;10409998;27;20476;-69
2020/12/23 16:32:12;;;;;;;96.00;64.30;;;;;;;;;;10408864;27;20464;-69
2020/12/23 16:37:10;;;;;;;106.78;65.30;;;;;;;;;;10399107;28;20082;-71
2020/12/23 16:42:08;;;;;;;112.63;71.88;;;;;;;;;;10401124;28;20431;-61
2020/12/23 16:47:09;;;;;;;53.90;37.17;;;;;;;;;;10426493;27;20082;-61
2020/12/23 16:52:07;;;;;;;62.78;41.58;;;;;;;;;;10417343;27;20047;-61
2020/12/23 16:57:06;;;;;;;76.68;45.65;;;;;;;;;;10414196;27;20179;-61
2020/12/23 17:02:04;;;;;;;53.17;37.13;;;;;;;;;;10422612;27;20071;-62
2020/12/23 17:07:02;;;;;;;85.78;57.65;;;;;;;;;;10423535;27;20063;-61
2020/12/23 17:12:01;;;;;;;55.05;37.78;;;;;;;;;;10412525;27;20091;-60
2020/12/23 17:17:00;;;;;;;63.63;43.30;;;;;;;;;;10395651;27;20047;-62
2020/12/23 17:22:00;;;;;;;50.80;36.08;;;;;;;;;;10417646;27;20091;-61
2020/12/23 17:26:58;;;;;;;59.78;38.90;;;;;;;;;;10404604;27;20051;-62
2020/12/23 17:31:55;;;;;;;76.80;49.70;;;;;;;;;;10435088;27;20527;-61
2020/12/23 17:36:54;;;;;;;63.67;41.17;;;;;;;;;;10440116;27;20066;-63
2020/12/23 17:41:51;;;;;;;69.82;46.13;;;;;;;;;;10406993;27;20078;-61
2020/12/23 17:46:53;;;;;;;47.70;30.27;;;;;;;;;;10426739;27;20071;-62
2020/12/23 17:51:51;;;;;;;52.67;30.23;;;;;;;;;;10394517;28;20535;-62
2020/12/23 17:56:49;;;;;;;48.00;28.67;;;;;;;;;;10397978;28;20429;-59
2020/12/23 18:01:47;;;;;;;58.92;31.90;;;;;;;;;;10423237;27;20101;-60
2020/12/23 18:06:44;;;;;;;54.70;34.63;;;;;;;;;;10421295;27;20046;-59
2020/12/23 18:11:42;;;;;;;47.45;29.10;;;;;;;;;;10439782;27;20086;-60
2020/12/23 18:16:40;;;;;;;45.70;26.83;;;;;;;;;;10440072;27;20039;-61
2020/12/23 18:21:37;;;;;;;46.30;26.33;;;;;;;;;;10438884;27;20083;-62
2020/12/23 18:26:34;;;;;;;44.78;27.40;;;;;;;;;;10439284;28;20072;-62
2020/12/23 18:31:32;;;;;;;42.40;27.65;;;;;;;;;;10440762;27;20039;-60
2020/12/23 18:36:31;;;;;;;49.85;30.02;;;;;;;;;;10448542;27;20054;-63
2020/12/23 18:41:28;;;;;;;52.60;32.75;;;;;;;;;;10447681;27;20079;-62
2020/12/23 18:46:26;;;;;;;43.85;28.85;;;;;;;;;;10428829;27;20043;-59
2020/12/23 18:51:25;;;;;;;63.83;38.28;;;;;;;;;;10447949;27;20065;-59
2020/12/23 18:56:24;;;;;;;62.70;41.05;;;;;;;;;;10447534;27;20086;-61
2020/12/23 19:01:21;;;;;;;58.60;34.53;;;;;;;;;;10424335;27;20067;-62
2020/12/23 19:06:21;;;;;;;47.25;31.65;;;;;;;;;;10412610;27;20062;-61
2020/12/23 19:11:19;;;;;;;51.15;32.05;;;;;;;;;;10419131;27;20071;-62
2020/12/23 19:16:17;;;;;;;46.17;31.10;;;;;;;;;;10430079;27;20469;-62
2020/12/23 19:21:17;;;;;;;80.97;45.35;;;;;;;;;;10427809;27;20070;-62
2020/12/23 19:26:16;;;;;;;59.25;37.40;;;;;;;;;;10434962;27;20082;-62
2020/12/23 19:31:13;;;;;;;106.00;66.30;;;;;;;;;;10433097;27;20464;-60
2020/12/23 19:36:15;;;;;;;126.30;81.00;;;;;;;;;;10429335;27;20063;-62
2020/12/23 19:41:15;;;;;;;179.25;115.07;;;;;;;;;;10428593;27;20074;-61
2020/12/23 19:46:13;;;;;;;102.10;65.43;;;;;;;;;;10437136;27;20133;-62
2020/12/23 19:51:13;;;;;;;88.13;63.20;;;;;;;;;;10445270;27;20055;-61
2020/12/23 19:56:14;;;;;;;92.57;61.10;;;;;;;;;;10409831;27;20106;-63
2020/12/23 20:01:12;;;;;;;102.00;63.40;;;;;;;;;;10431813;27;20039;-61
2020/12/23 20:06:10;;;;;;;41.63;30.25;;;;;;;;;;10418649;27;20074;-62
2020/12/23 20:11:07;;;;;;;73.43;52.83;;;;;;;;;;10433612;27;20078;-62
2020/12/23 20:16:06;;;;;;;81.78;53.50;;;;;;;;;;10436701;27;20063;-62
2020/12/23 20:21:03;;;;;;;94.90;60.63;;;;;;;;;;10444837;27;20047;-62
2020/12/23 20:26:00;;;;;;;65.57;42.15;;;;;;;;;;10428652;27;20089;-63
2020/12/23 20:30:58;;;;;;;48.80;34.70;;;;;;;;;;10407544;27;20154;-61
2020/12/23 20:35:56;;;;;;;55.38;40.13;;;;;;;;;;10429417;27;20051;-62
2020/12/23 20:40:53;;;;;;;64.80;46.92;;;;;;;;;;10427778;27;20078;-61
2020/12/23 20:45:52;;;;;;;33.53;25.15;;;;;;;;;;10422942;27;20078;-61
2020/12/23 20:50:49;;;;;;;32.20;23.60;;;;;;;;;;10416363;27;20070;-62
2020/12/23 20:55:49;;;;;;;28.25;23.40;;;;;;;;;;10430892;27;20082;-61
2020/12/23 21:00:46;;;;;;;26.33;20.05;;;;;;;;;;10429074;27;20538;-62
2020/12/23 21:05:46;;;;;;;33.95;26.85;;;;;;;;;;10417739;27;20082;-60
2020/12/23 21:10:44;;;;;;;44.28;31.25;;;;;;;;;;10426042;27;20073;-61
2020/12/23 21:15:42;;;;;;;82.88;38.80;;;;;;;;;;10419193;27;20078;-62
2020/12/23 21:20:39;;;;;;;62.53;35.78;;;;;;;;;;10431170;27;20610;-62
2020/12/23 21:25:37;;;;;;;76.45;45.60;;;;;;;;;;10428651;27;20063;-61
2020/12/23 21:30:35;;;;;;;45.63;31.98;;;;;;;;;;10409970;27;20178;-61
2020/12/23 21:35:33;;;;;;;45.75;31.58;;;;;;;;;;10415976;27;20078;-59
2020/12/23 21:40:30;;;;;;;57.88;39.38;;;;;;;;;;10419442;27;20052;-61
2020/12/23 21:45:28;;;;;;;64.97;47.22;;;;;;;;;;10402147;27;20094;-62
2020/12/23 21:50:25;;;;;;;103.60;67.97;;;;;;;;;;10414614;27;20360;-61
2020/12/23 21:55:23;;;;;;;158.18;97.10;;;;;;;;;;10433381;27;20066;-62
2020/12/23 22:00:22;;;;;;;124.47;80.10;;;;;;;;;;10414411;27;20074;-60
2020/12/23 22:05:20;;;;;;;130.90;82.82;;;;;;;;;;10421603;27;20078;-61
2020/12/23 22:10:17;;;;;;;128.48;83.57;;;;;;;;;;10419100;27;20071;-60
2020/12/23 22:15:15;;;;;;;111.80;72.20;;;;;;;;;;10418951;27;20067;-61
2020/12/23 22:20:12;;;;;;;71.70;47.47;;;;;;;;;;10397892;28;20059;-61
2020/12/23 22:25:09;;;;;;;48.10;34.78;;;;;;;;;;10421053;28;20082;-61
2020/12/23 22:30:07;;;;;;;74.97;48.58;;;;;;;;;;10435726;28;20078;-61
2020/12/23 22:35:05;;;;;;;75.63;49.55;;;;;;;;;;10406780;27;20097;-62
2020/12/23 22:40:03;;;;;;;54.03;33.85;;;;;;;;;;10428767;27;20077;-62
2020/12/23 22:45:00;;;;;;;109.35;70.38;;;;;;;;;;10429719;27;20094;-62
2020/12/23 22:49:58;;;;;;;107.05;66.88;;;;;;;;;;10411219;28;20079;-62
2020/12/23 22:54:56;;;;;;;115.20;72.00;;;;;;;;;;10412491;28;20067;-60
2020/12/23 22:59:53;;;;;;;112.32;72.18;;;;;;;;;;10414725;28;20063;-60
2020/12/23 23:04:51;;;;;;;83.53;52.33;;;;;;;;;;10410042;28;20067;-61
2020/12/23 23:09:48;;;;;;;116.60;75.72;;;;;;;;;;10437220;28;20050;-61
2020/12/23 23:14:46;;;;;;;105.80;70.60;;;;;;;;;;10439693;28;20039;-61
2020/12/23 23:19:43;;;;;;;48.40;34.58;;;;;;;;;;10427077;27;20526;-60
2020/12/23 23:24:41;;;;;;;112.28;70.65;;;;;;;;;;10445497;27;20499;-62
2020/12/23 23:29:39;;;;;;;111.38;70.88;;;;;;;;;;10444976;27;20055;-61
2020/12/23 23:34:37;;;;;;;82.90;53.47;;;;;;;;;;10431860;27;20509;-60
2020/12/23 23:39:36;;;;;;;37.50;26.42;;;;;;;;;;10413964;27;20083;-61
2020/12/23 23:44:33;;;;;;;58.10;34.30;;;;;;;;;;10401420;28;20094;-60
2020/12/23 23:49:31;;;;;;;48.47;29.20;;;;;;;;;;10401853;28;20078;-61
2020/12/23 23:54:29;;;;;;;54.15;30.05;;;;;;;;;;10409063;27;20082;-61
2020/12/23 23:59:26;;;;;;;45.42;27.00;;;;;;;;;;10416350;27;20075;-61
